createdAt,value
2023-04-28T00:00:03.190Z,13.05
2023-04-28T00:02:31.806Z,15.35
2023-04-28T00:04:58.901Z,16.17
2023-04-28T00:07:25.343Z,13.55
2023-04-28T00:09:51.830Z,14.27
2023-04-28T00:12:18.216Z,19.40
2023-04-28T00:14:44.681Z,14.40
2023-04-28T00:17:11.589Z,13.25
2023-04-28T00:19:38.969Z,15.68
2023-04-28T00:22:06.319Z,16.15
2023-04-28T00:24:33.724Z,15.82
2023-04-28T00:27:00.104Z,15.02
2023-04-28T00:29:29.411Z,13.95
2023-04-28T00:31:56.177Z,13.35
2023-04-28T00:34:22.641Z,15.07
2023-04-28T00:36:49.080Z,14.18
2023-04-28T00:39:18.332Z,15.10
2023-04-28T00:41:44.762Z,17.13
2023-04-28T00:44:11.344Z,17.92
2023-04-28T00:46:37.766Z,15.25
2023-04-28T00:49:04.431Z,15.77
2023-04-28T00:51:33.588Z,15.15
2023-04-28T00:54:00.002Z,16.45
2023-04-28T00:56:27.654Z,15.25
2023-04-28T00:58:54.198Z,18.75
2023-04-28T01:01:20.631Z,17.85
2023-04-28T01:03:47.337Z,16.30
2023-04-28T01:06:16.528Z,18.70
2023-04-28T01:08:43.870Z,19.10
2023-04-28T01:11:15.398Z,19.35
2023-04-28T01:14:05.157Z,16.85
2023-04-28T01:16:35.778Z,19.95
2023-04-28T01:19:02.758Z,17.80
2023-04-28T01:21:34.374Z,17.70
2023-04-28T01:24:09.140Z,15.00
2023-04-28T01:26:35.644Z,17.73
2023-04-28T01:29:02.152Z,15.13
2023-04-28T01:31:30.933Z,17.33
2023-04-28T01:33:57.866Z,16.92
2023-04-28T01:36:24.284Z,17.23
2023-04-28T01:38:51.511Z,18.83
2023-04-28T01:41:17.934Z,15.20
2023-04-28T01:43:44.382Z,18.00
2023-04-28T01:46:11.318Z,18.05
2023-04-28T01:48:37.969Z,19.05
2023-04-28T01:51:05.807Z,16.85
2023-04-28T01:53:32.312Z,18.95
2023-04-28T01:55:58.977Z,17.77
2023-04-28T01:58:26.048Z,19.23
2023-04-28T02:00:52.590Z,16.27
2023-04-28T02:03:21.427Z,17.13
2023-04-28T02:05:47.959Z,17.13
2023-04-28T02:08:15.259Z,21.75
2023-04-28T02:10:42.002Z,18.70
2023-04-28T02:13:08.512Z,19.98
2023-04-28T02:15:39.404Z,19.25
2023-04-28T02:18:05.847Z,16.65
2023-04-28T02:20:33.267Z,17.77
2023-04-28T02:22:59.946Z,18.58
2023-04-28T02:25:26.410Z,18.48
2023-04-28T02:27:52.975Z,18.20
2023-04-28T02:30:20.071Z,17.38
2023-04-28T02:32:48.507Z,18.38
2023-04-28T02:35:16.654Z,18.20
2023-04-28T02:37:43.213Z,18.88
2023-04-28T02:40:09.966Z,20.90
2023-04-28T02:42:36.422Z,21.77
2023-04-28T02:45:02.948Z,22.33
2023-04-28T02:47:29.384Z,17.95
2023-04-28T02:49:56.012Z,17.02
2023-04-28T02:52:22.405Z,21.17
2023-04-28T02:54:49.249Z,17.98
2023-04-28T02:57:16.983Z,19.38
2023-04-28T02:59:43.375Z,21.08
2023-04-28T03:02:09.828Z,22.48
2023-04-28T03:04:36.856Z,19.08
2023-04-28T03:07:03.363Z,19.05
2023-04-28T03:09:29.771Z,22.88
2023-04-28T03:11:56.338Z,19.77
2023-04-28T03:14:22.763Z,20.08
2023-04-28T03:16:49.340Z,25.67
2023-04-28T03:19:16.210Z,20.73
2023-04-28T03:21:42.624Z,21.20
2023-04-28T03:24:09.237Z,19.40
2023-04-28T03:26:36.197Z,19.98
2023-04-28T03:29:03.929Z,22.25
2023-04-28T03:31:30.411Z,19.38
2023-04-28T03:33:59.412Z,21.50
2023-04-28T03:36:27.455Z,19.63
2023-04-28T03:39:01.577Z,20.80
2023-04-28T03:41:30.676Z,21.27
2023-04-28T03:44:17.525Z,19.90
2023-04-28T03:46:49.227Z,19.95
2023-04-28T03:49:15.905Z,19.27
2023-04-28T03:51:42.409Z,19.17
2023-04-28T03:54:09.494Z,20.98
2023-04-28T03:56:36.499Z,19.77
2023-04-28T03:59:04.027Z,20.83
2023-04-28T04:01:30.452Z,21.38
2023-04-28T04:03:57.059Z,18.75
2023-04-28T04:06:24.205Z,20.85
2023-04-28T04:08:50.779Z,18.63
2023-04-28T04:11:17.782Z,19.55
2023-04-28T04:13:44.620Z,18.33
2023-04-28T04:16:15.964Z,17.55
2023-04-28T04:18:43.007Z,21.05
2023-04-28T04:21:20.970Z,15.63
2023-04-28T04:23:49.784Z,18.40
2023-04-28T04:26:16.417Z,18.77
2023-04-28T04:28:42.833Z,17.85
2023-04-28T04:31:10.623Z,16.17
2023-04-28T04:33:37.580Z,18.35
2023-04-28T04:36:06.566Z,15.98
2023-04-28T04:38:33.332Z,18.98
2023-04-28T04:41:09.193Z,15.98
2023-04-28T04:43:35.597Z,17.25
2023-04-28T04:46:03.956Z,15.15
2023-04-28T04:48:31.144Z,17.23
2023-04-28T04:50:58.597Z,16.90
2023-04-28T04:53:25.711Z,18.25
2023-04-28T04:55:54.593Z,17.67
2023-04-28T04:58:21.329Z,17.60
2023-04-28T05:00:56.872Z,19.13
2023-04-28T05:03:23.585Z,16.52
2023-04-28T05:05:50.332Z,18.27
2023-04-28T05:08:26.026Z,17.50
2023-04-28T05:10:52.963Z,14.18
2023-04-28T05:13:19.549Z,16.83
2023-04-28T05:15:48.694Z,18.02
2023-04-28T05:18:35.805Z,16.80
2023-04-28T05:21:02.296Z,15.32
2023-04-28T05:23:28.708Z,19.77
2023-04-28T05:25:55.172Z,14.50
2023-04-28T05:28:22.174Z,16.73
2023-04-28T05:30:51.965Z,17.85
2023-04-28T05:33:18.515Z,16.33
2023-04-28T05:35:45.088Z,18.08
2023-04-28T05:38:12.220Z,14.55
2023-04-28T05:40:38.904Z,18.05
2023-04-28T05:43:05.318Z,14.27
2023-04-28T05:45:31.814Z,17.67
2023-04-28T05:47:58.294Z,20.75
2023-04-28T05:50:25.394Z,16.33
2023-04-28T05:52:53.517Z,20.20
2023-04-28T05:55:20.130Z,17.08
2023-04-28T05:57:52.889Z,15.80
2023-04-28T06:00:22.258Z,16.45
2023-04-28T06:02:51.639Z,15.85
2023-04-28T06:05:19.406Z,15.60
2023-04-28T06:07:48.318Z,15.80
2023-04-28T06:10:16.787Z,16.52
2023-04-28T06:12:43.244Z,14.90
2023-04-28T06:15:10.183Z,14.45
2023-04-28T06:17:37.390Z,14.80
2023-04-28T06:20:04.950Z,16.25
2023-04-28T06:22:31.563Z,15.32
2023-04-28T06:24:57.997Z,14.93
2023-04-28T06:27:38.563Z,13.68
2023-04-28T06:30:05.990Z,15.60
2023-04-28T06:32:33.627Z,11.25
2023-04-28T06:35:00.040Z,15.90
2023-04-28T06:37:27.063Z,15.63
2023-04-28T06:39:53.504Z,13.90
2023-04-28T06:42:20.380Z,18.10
2023-04-28T06:44:55.464Z,15.18
2023-04-28T06:47:22.460Z,14.55
2023-04-28T06:49:50.094Z,15.10
2023-04-28T06:52:16.846Z,14.65
2023-04-28T06:54:43.284Z,15.93
2023-04-28T06:57:09.958Z,17.35
2023-04-28T06:59:36.397Z,13.50
2023-04-28T07:02:03.274Z,16.02
2023-04-28T07:04:30.062Z,12.02
2023-04-28T07:06:57.156Z,12.65
2023-04-28T07:09:23.537Z,17.67
2023-04-28T07:11:50.217Z,15.40
2023-04-28T07:14:17.160Z,16.20
2023-04-28T07:16:43.847Z,13.95
2023-04-28T07:19:10.393Z,14.27
2023-04-28T07:21:36.874Z,12.15
2023-04-28T07:24:03.412Z,12.90
2023-04-28T07:26:30.258Z,10.35
2023-04-28T07:28:56.677Z,10.75
2023-04-28T07:31:23.136Z,16.02
2023-04-28T07:33:49.582Z,9.65
2023-04-28T07:36:16.217Z,11.05
2023-04-28T07:38:42.691Z,11.45
2023-04-28T07:41:11.123Z,9.48
2023-04-28T07:43:38.257Z,11.25
2023-04-28T07:46:04.851Z,9.77
2023-04-28T07:48:32.372Z,11.88
2023-04-28T07:50:58.904Z,12.02
2023-04-28T07:53:25.386Z,13.27
2023-04-28T07:55:51.810Z,13.60
2023-04-28T07:58:20.022Z,10.73
2023-04-28T08:00:46.598Z,12.93
2023-04-28T08:03:13.176Z,13.40
2023-04-28T08:05:40.251Z,12.23
2023-04-28T08:08:07.113Z,14.30
2023-04-28T08:10:33.536Z,13.00
2023-04-28T08:12:59.912Z,13.27
2023-04-28T08:15:27.510Z,13.30
2023-04-28T08:17:54.060Z,13.52
2023-04-28T08:20:24.403Z,13.50
2023-04-28T08:22:52.721Z,13.60
2023-04-28T08:25:19.154Z,13.27
2023-04-28T08:27:45.821Z,12.60
2023-04-28T08:30:13.178Z,13.82
2023-04-28T08:32:39.698Z,15.70
2023-04-28T08:35:07.040Z,12.45
2023-04-28T08:37:34.119Z,13.70
2023-04-28T08:40:04.652Z,15.00
2023-04-28T08:42:32.180Z,14.40
2023-04-28T08:45:02.206Z,14.25
2023-04-28T08:47:36.873Z,15.32
2023-04-28T08:50:05.793Z,14.57
2023-04-28T08:52:33.126Z,13.57
2023-04-28T08:55:01.670Z,16.73
2023-04-28T08:57:34.604Z,11.65
2023-04-28T09:00:01.478Z,16.15
2023-04-28T09:02:28.128Z,15.75
2023-04-28T09:04:54.872Z,17.55
2023-04-28T09:07:22.164Z,13.63
2023-04-28T09:09:48.642Z,12.88
2023-04-28T09:12:15.265Z,14.30
2023-04-28T09:14:41.739Z,15.93
2023-04-28T09:17:13.132Z,16.13
2023-04-28T09:19:42.926Z,16.63
2023-04-28T09:22:24.818Z,14.50
2023-04-28T09:24:53.387Z,15.57
2023-04-28T09:27:27.169Z,12.75
2023-04-28T09:29:54.339Z,14.02
2023-04-28T09:32:23.234Z,15.68
2023-04-28T09:34:52.175Z,17.05
2023-04-28T09:37:20.824Z,15.93
2023-04-28T09:39:49.671Z,15.07
2023-04-28T09:42:37.597Z,15.43
2023-04-28T09:45:05.105Z,17.50
2023-04-28T09:47:33.504Z,18.70
2023-04-28T09:50:02.592Z,19.58
2023-04-28T09:52:29.341Z,21.02
2023-04-28T09:54:57.177Z,18.25
2023-04-28T09:57:24.056Z,15.50
2023-04-28T09:59:52.900Z,15.90
2023-04-28T10:02:41.893Z,11.70
2023-04-28T10:05:09.656Z,12.20
2023-04-28T10:07:37.437Z,11.75
2023-04-28T10:10:04.414Z,12.45
2023-04-28T10:12:32.791Z,13.32
2023-04-28T10:14:59.994Z,13.73
2023-04-28T10:17:27.221Z,9.95
2023-04-28T10:19:54.657Z,10.55
2023-04-28T10:22:59.192Z,10.35
2023-04-28T10:25:32.432Z,10.60
2023-04-28T10:30:29.656Z,13.05
2023-04-28T10:33:09.137Z,12.02
2023-04-28T10:35:42.577Z,14.07
2023-04-28T10:38:10.126Z,14.02
2023-04-28T10:40:39.609Z,15.60
2023-04-28T10:43:07.573Z,14.40
2023-04-28T10:45:49.437Z,12.38
2023-04-28T10:48:16.968Z,16.10
2023-04-28T10:51:15.828Z,13.52
2023-04-28T10:53:45.627Z,15.10
2023-04-28T10:56:19.488Z,13.48
2023-04-28T10:58:47.614Z,15.40
2023-04-28T11:01:19.919Z,16.17
2023-04-28T11:03:51.054Z,13.68
2023-04-28T11:06:25.614Z,13.50
2023-04-28T11:08:57.589Z,15.93
2023-04-28T11:11:26.015Z,14.57
2023-04-28T11:14:18.853Z,18.90
2023-04-28T11:17:01.036Z,16.13
2023-04-28T11:19:33.564Z,14.18
2023-04-28T11:22:01.890Z,15.67
2023-04-28T11:24:29.548Z,15.35
2023-04-28T11:27:00.148Z,13.80
2023-04-28T11:29:39.776Z,14.55
2023-04-28T11:32:08.058Z,13.90
2023-04-28T11:34:35.438Z,13.82
2023-04-28T11:37:02.830Z,12.43
2023-04-28T11:39:31.235Z,15.02
2023-04-28T11:41:59.448Z,11.93
2023-04-28T11:44:29.113Z,13.15
2023-04-28T11:47:01.448Z,15.07
2023-04-28T11:49:41.391Z,10.88
2023-04-28T11:52:09.269Z,12.25
2023-04-28T11:54:37.376Z,11.40
2023-04-28T11:57:04.908Z,9.60
2023-04-28T11:59:34.078Z,11.10
2023-04-28T12:02:03.589Z,9.23
2023-04-28T12:04:30.392Z,8.93
2023-04-28T12:07:04.637Z,9.68
2023-04-28T12:09:32.284Z,8.18
2023-04-28T12:12:04.602Z,9.45
2023-04-28T12:14:35.229Z,9.00
2023-04-28T12:17:02.220Z,8.82
2023-04-28T12:19:28.663Z,8.60
2023-04-28T12:22:06.328Z,9.20
2023-04-28T12:24:33.641Z,8.45
2023-04-28T12:27:15.763Z,12.27
2023-04-28T12:29:43.748Z,9.63
2023-04-28T12:32:12.656Z,8.93
2023-04-28T12:34:41.317Z,9.20
2023-04-28T12:37:08.139Z,8.88
2023-04-28T12:39:39.322Z,9.52
2023-04-28T12:42:06.976Z,9.45
2023-04-28T12:44:38.179Z,9.93
2023-04-28T12:47:08.836Z,8.30
2023-04-28T12:49:36.382Z,8.18
2023-04-28T12:52:04.353Z,6.65
2023-04-28T12:54:31.318Z,7.40
2023-04-28T12:56:57.773Z,7.53
2023-04-28T12:59:24.217Z,7.03
2023-04-28T13:01:50.861Z,6.28
2023-04-28T13:04:18.967Z,6.55
2023-04-28T13:06:45.631Z,7.45
2023-04-28T13:09:12.257Z,7.25
2023-04-28T13:11:39.246Z,6.55
2023-04-28T13:14:05.920Z,6.45
2023-04-28T13:16:32.407Z,6.57
2023-04-28T13:18:59.069Z,7.05
2023-04-28T13:21:26.635Z,7.68
2023-04-28T13:23:54.106Z,7.20
2023-04-28T13:26:22.089Z,8.15
2023-04-28T13:28:48.568Z,6.65
2023-04-28T13:31:15.185Z,7.03
2023-04-28T13:33:42.114Z,9.95
2023-04-28T13:36:09.402Z,19.25
2023-04-28T13:38:36.266Z,8.75
2023-04-28T13:41:03.127Z,8.20
2023-04-28T13:43:31.023Z,7.93
2023-04-28T13:45:57.849Z,7.30
2023-04-28T13:48:24.492Z,7.53
2023-04-28T13:50:50.938Z,8.65
2023-04-28T13:53:17.402Z,6.95
2023-04-28T13:55:44.355Z,10.38
2023-04-28T13:58:11.146Z,7.40
2023-04-28T14:00:37.879Z,11.00
2023-04-28T14:03:04.530Z,6.88
2023-04-28T14:05:38.963Z,6.65
2023-04-28T14:08:12.617Z,5.78
2023-04-28T14:10:39.196Z,5.97
2023-04-28T14:13:06.100Z,5.35
2023-04-28T14:15:33.040Z,11.50
2023-04-28T14:17:59.634Z,29.52
2023-04-28T14:20:27.991Z,12.07
2023-04-28T14:22:54.888Z,8.88
2023-04-28T14:25:21.826Z,7.57
2023-04-28T14:27:51.727Z,14.98
2023-04-28T14:30:19.714Z,6.10
2023-04-28T14:32:46.537Z,6.13
2023-04-28T14:35:14.170Z,6.80
2023-04-28T14:37:41.575Z,6.68
2023-04-28T14:40:09.011Z,5.13
2023-04-28T14:42:37.025Z,4.13
2023-04-28T14:45:05.088Z,3.78
2023-04-28T14:47:32.229Z,3.53
2023-04-28T14:49:59.260Z,3.30
2023-04-28T14:52:27.509Z,4.25
2023-04-28T14:54:54.900Z,4.38
2023-04-28T14:57:21.629Z,4.78
2023-04-28T14:59:48.022Z,3.75
2023-04-28T15:02:14.820Z,4.75
2023-04-28T15:04:41.343Z,6.25
2023-04-28T15:07:11.152Z,6.63
2023-04-28T15:09:37.644Z,6.97
2023-04-28T15:12:04.579Z,6.47
2023-04-28T15:14:31.613Z,6.55
2023-04-28T15:16:59.225Z,9.25
2023-04-28T15:19:25.832Z,7.85
2023-04-28T15:21:52.621Z,8.13
2023-04-28T15:24:20.871Z,11.90
2023-04-28T15:26:47.686Z,12.35
2023-04-28T15:29:14.123Z,11.13
2023-04-28T15:31:41.497Z,24.92
2023-04-28T15:34:08.418Z,7.43
2023-04-28T15:36:39.454Z,6.00
2023-04-28T15:39:06.427Z,12.27
2023-04-28T15:41:34.479Z,7.72
2023-04-28T15:44:01.181Z,8.40
2023-04-28T15:46:28.328Z,8.10
2023-04-28T15:48:55.114Z,12.63
2023-04-28T15:51:22.175Z,5.60
2023-04-28T15:53:50.573Z,6.35
2023-04-28T15:56:19.570Z,4.95
2023-04-28T15:58:47.328Z,4.97
2023-04-28T16:01:14.160Z,4.40
2023-04-28T16:03:41.034Z,5.22
2023-04-28T16:06:08.148Z,5.65
2023-04-28T16:08:35.530Z,6.07
2023-04-28T16:11:02.535Z,5.40
2023-04-28T16:13:32.639Z,4.95
2023-04-28T16:15:59.524Z,5.82
2023-04-28T16:18:26.653Z,8.82
2023-04-28T16:20:53.712Z,7.28
2023-04-28T16:23:22.975Z,7.28
2023-04-28T16:25:50.726Z,9.00
2023-04-28T16:28:17.744Z,7.03
2023-04-28T16:30:44.195Z,7.65
2023-04-28T16:33:10.684Z,7.22
2023-04-28T16:35:37.181Z,8.52
2023-04-28T16:38:03.842Z,7.53
2023-04-28T16:40:30.618Z,6.75
2023-04-28T16:42:57.349Z,6.93
2023-04-28T16:45:23.980Z,8.60
2023-04-28T16:47:51.593Z,7.47
2023-04-28T16:50:18.061Z,6.70
2023-04-28T16:52:45.097Z,7.15
2023-04-28T16:55:11.782Z,7.05
2023-04-28T16:57:38.302Z,8.32
2023-04-28T17:00:06.176Z,6.90
2023-04-28T17:02:33.241Z,8.77
2023-04-28T17:05:00.521Z,8.05
2023-04-28T17:07:27.680Z,9.63
2023-04-28T17:09:54.269Z,7.38
2023-04-28T17:12:21.000Z,8.48
2023-04-28T17:14:47.750Z,7.13
2023-04-28T17:17:14.210Z,9.60
2023-04-28T17:19:42.056Z,9.13
2023-04-28T17:22:08.673Z,9.70
2023-04-28T17:24:35.929Z,11.55
2023-04-28T17:27:02.312Z,9.45
2023-04-28T17:29:28.753Z,9.55
2023-04-28T17:31:56.127Z,9.07
2023-04-28T17:34:23.218Z,10.43
2023-04-28T17:36:49.658Z,9.07
2023-04-28T17:39:16.716Z,10.15
2023-04-28T17:41:44.822Z,12.18
2023-04-28T17:44:11.240Z,10.05
2023-04-28T17:46:38.499Z,9.80
2023-04-28T17:49:05.455Z,9.35
2023-04-28T17:51:32.363Z,9.10
2023-04-28T17:53:59.807Z,9.60
2023-04-28T17:56:26.890Z,10.70
2023-04-28T17:58:53.299Z,9.10
2023-04-28T18:01:20.023Z,9.55
2023-04-28T18:03:46.752Z,9.45
2023-04-28T18:06:13.728Z,7.78
2023-04-28T18:08:40.868Z,8.48
2023-04-28T18:11:09.797Z,8.48
2023-04-28T18:13:36.730Z,7.57
2023-04-28T18:16:05.088Z,6.95
2023-04-28T18:18:34.049Z,6.43
2023-04-28T18:21:02.239Z,7.45
2023-04-28T18:23:30.253Z,6.80
2023-04-28T18:25:57.023Z,6.75
2023-04-28T18:28:23.412Z,7.00
2023-04-28T18:30:49.947Z,8.27
2023-04-28T18:33:21.425Z,7.38
2023-04-28T18:35:57.683Z,8.50
2023-04-28T18:38:24.246Z,7.80
2023-04-28T18:40:50.692Z,8.68
2023-04-28T18:43:17.369Z,8.02
2023-04-28T18:45:44.466Z,8.15
2023-04-28T18:48:11.507Z,7.28
2023-04-28T18:50:38.269Z,6.65
2023-04-28T18:53:05.254Z,8.65
2023-04-28T18:55:34.567Z,7.30
2023-04-28T18:58:04.050Z,8.35
2023-04-28T19:00:32.185Z,8.35
2023-04-28T19:02:58.813Z,8.25
2023-04-28T19:05:25.887Z,9.38
2023-04-28T19:07:52.373Z,9.68
2023-04-28T19:10:18.839Z,9.38
2023-04-28T19:12:45.252Z,9.18
2023-04-28T19:15:11.774Z,9.95
2023-04-28T19:17:38.202Z,9.55
2023-04-28T19:20:05.468Z,9.45
2023-04-28T19:22:34.970Z,9.65
2023-04-28T19:25:01.924Z,9.85
2023-04-28T19:27:33.054Z,9.23
2023-04-28T19:30:00.635Z,8.75
2023-04-28T19:32:27.832Z,8.52
2023-04-28T19:34:54.971Z,9.13
2023-04-28T19:37:22.283Z,11.68
2023-04-28T19:39:50.896Z,11.18
2023-04-28T19:42:17.976Z,9.43
2023-04-28T19:44:45.747Z,10.90
2023-04-28T19:47:12.672Z,9.48
2023-04-28T19:49:41.314Z,11.43
2023-04-28T19:52:09.998Z,11.45
2023-04-28T19:54:38.150Z,11.30
2023-04-28T19:57:04.585Z,11.70
2023-04-28T19:59:31.427Z,14.90
2023-04-28T20:01:57.854Z,14.30
2023-04-28T20:04:24.563Z,11.10
2023-04-28T20:06:51.577Z,10.38
2023-04-28T20:09:17.965Z,10.70
2023-04-28T20:11:44.348Z,10.07
2023-04-28T20:14:10.987Z,11.23
2023-04-28T20:16:37.408Z,15.55
2023-04-28T20:19:03.866Z,11.38
2023-04-28T20:21:31.628Z,16.67
2023-04-28T20:23:58.102Z,15.23
2023-04-28T20:26:24.547Z,15.23
2023-04-28T20:28:50.951Z,13.15
2023-04-28T20:31:17.367Z,14.10
2023-04-28T20:33:43.803Z,13.57
2023-04-28T20:36:10.437Z,12.50
2023-04-28T20:38:37.365Z,14.75
2023-04-28T20:41:04.310Z,15.02
2023-04-28T20:43:30.756Z,15.20
2023-04-28T20:45:57.695Z,13.23
2023-04-28T20:48:24.157Z,13.63
2023-04-28T20:50:53.074Z,15.55
2023-04-28T20:53:19.969Z,14.63
2023-04-28T20:55:46.355Z,14.65
2023-04-28T20:58:14.374Z,13.82
2023-04-28T21:00:42.249Z,16.20
2023-04-28T21:03:15.352Z,14.32
2023-04-28T21:08:09.532Z,15.13
2023-04-28T21:10:36.248Z,17.75
2023-04-28T21:13:03.321Z,18.63
2023-04-28T21:15:30.912Z,18.25
2023-04-28T21:17:57.344Z,16.67
2023-04-28T21:20:24.215Z,17.75
2023-04-28T21:22:50.759Z,16.58
2023-04-28T21:25:17.220Z,16.35
2023-04-28T21:27:43.595Z,16.77
2023-04-28T21:30:11.790Z,15.32
2023-04-28T21:32:38.830Z,16.10
2023-04-28T21:35:05.911Z,16.40
2023-04-28T21:37:32.625Z,18.42
2023-04-28T21:39:59.068Z,16.25
2023-04-28T21:42:25.597Z,17.35
2023-04-28T21:44:51.973Z,19.33
2023-04-28T21:47:18.348Z,19.58
2023-04-28T21:49:44.871Z,21.38
2023-04-28T21:52:11.222Z,17.23
2023-04-28T21:54:37.750Z,18.23
2023-04-28T21:57:04.154Z,18.20
2023-04-28T21:59:30.557Z,18.90
2023-04-28T22:01:58.578Z,19.65
2023-04-28T22:04:25.447Z,18.77
2023-04-28T22:06:51.986Z,18.70
2023-04-28T22:09:18.452Z,18.48
2023-04-28T22:11:44.798Z,21.45
2023-04-28T22:14:15.200Z,18.33
2023-04-28T22:16:48.205Z,21.73
2023-04-28T22:19:14.677Z,23.08
2023-04-28T22:21:41.627Z,20.25
2023-04-28T22:24:08.195Z,23.48
2023-04-28T22:26:37.599Z,26.35
2023-04-28T22:29:04.063Z,25.40
2023-04-28T22:31:30.459Z,31.38
2023-04-28T22:33:56.948Z,29.00
2023-04-28T22:36:23.475Z,29.30
2023-04-28T22:38:50.082Z,31.55
2023-04-28T22:41:16.484Z,27.42
2023-04-28T22:43:43.101Z,31.17
2023-04-28T22:46:10.156Z,37.45
2023-04-28T22:48:36.575Z,35.65
2023-04-28T22:51:03.004Z,37.15
2023-04-28T22:53:29.425Z,39.75
2023-04-28T22:55:58.049Z,36.58
2023-04-28T22:58:24.438Z,38.60
2023-04-28T23:00:50.848Z,37.38
2023-04-28T23:03:17.498Z,39.65
2023-04-28T23:05:46.109Z,39.55
2023-04-28T23:08:12.561Z,45.65
2023-04-28T23:10:38.963Z,45.00
2023-04-28T23:13:06.041Z,42.50
2023-04-28T23:15:32.443Z,42.70
2023-04-28T23:17:58.972Z,42.58
2023-04-28T23:20:25.721Z,39.17
2023-04-28T23:22:52.440Z,37.85
2023-04-28T23:25:18.831Z,38.88
2023-04-28T23:27:45.917Z,40.17
2023-04-28T23:30:12.937Z,44.75
2023-04-28T23:32:39.630Z,44.75
2023-04-28T23:35:06.634Z,43.80
2023-04-28T23:37:33.007Z,44.65
2023-04-28T23:39:59.475Z,39.95
2023-04-28T23:42:26.861Z,42.78
2023-04-28T23:44:53.262Z,36.70
2023-04-28T23:47:19.978Z,38.00
2023-04-28T23:49:46.682Z,40.50
2023-04-28T23:52:13.193Z,39.30
2023-04-28T23:54:39.853Z,42.22
2023-04-28T23:57:06.524Z,39.47
2023-04-28T23:59:32.933Z,39.92
